Gaffney, SC

10:14 PM EST on December 04, 2016 (GMT -0500)
Corinth Community | | Change Station

Elev 669 ft 34.98 °N, 81.61 °W | Updated 4 seconds ago

Light Rain
Light Rain
40.6 °F
Feels Like 41 °F
N
0.0
Wind Variable Wind from North
Gusts 0.0 mph

Today
High -- | Low -- °F
--% Chance of Precip.
Yesterday
High -- | Low -- °F
Precip. -- in
Pressure 30.11 in
Visibility 7.0 miles
Clouds Scattered Clouds 400 ft
Overcast 1400 ft
Windchill 41 °F
Dew Point 36 °F
Humidity 85%
Rainfall 0.50 in
Snow Depth Not available.
7:19 AM 5:14 PM
Waxing Crescent, 27% visible
METAR KEHO 050305Z AUTO 00000KT 7SM -RA SCT004 OVC014 05/05 A3011 RMK AO2 T00450045
Pressure 30.11 in
Visibility 7.0 miles
Clouds Scattered Clouds 400 ft
Overcast 1400 ft
Windchill 41 °F
Dew Point 36 °F
Humidity 85%
Rainfall 0.50 in
Snow Depth Not available.
7:19 AM 5:14 PM
Waxing Crescent, 27% visible
METAR KEHO 050305Z AUTO 00000KT 7SM -RA SCT004 OVC014 05/05 A3011 RMK AO2 T00450045

10-Day Weather Forecast

Almanac

Astronomy

Dec. 04, 2016 Rise Set
Actual Time
Civil Twilight
Nautical Twilight
Astronomical Twilight
Moon
Length of Visible Light
Length of Day
Tomorrow will be .
, % of the Moon is Illuminated

Today's Extremes

State Highs State Lows

Community

WunderPhotos

Upload Photos

1,955,752 photos uploaded!

WunderBlog® & News

Nearby

Air Quality

  Air Quality AQ Index Pollutant
Not available.

Snow Depth

Station Depth Elevation

Earthquake Activity

City Distance Mag. Time & Date
Minimum magnitude displayed is 2.5.

Coastal Water Temperatures

Place Temperature

Stations

Nearby Weather Stations

Station Location Temp. Windchill Dew Point Humidity Wind Precip. Elev Updated Type
                   

Watches & Warnings

There are currently no watches in effect.